createdAt,value
2023-04-06T00:02:11.994Z,101347.25
2023-04-06T00:05:14.480Z,101351.38
2023-04-06T00:08:16.920Z,101351.19
2023-04-06T00:11:19.354Z,101346.59
2023-04-06T00:14:21.776Z,101348.22
2023-04-06T00:17:24.114Z,101336.03
2023-04-06T00:20:26.762Z,101347.66
2023-04-06T00:23:29.106Z,101341.72
2023-04-06T00:26:31.466Z,101343.91
2023-04-06T00:29:33.908Z,101342.66
2023-04-06T00:32:37.256Z,101342.31
2023-04-06T00:35:39.964Z,101340.50
2023-04-06T00:38:42.436Z,101337.81
2023-04-06T00:41:48.355Z,101342.94
2023-04-06T00:44:50.679Z,101335.31
2023-04-06T00:47:53.033Z,101336.34
2023-04-06T00:50:55.590Z,101334.63
2023-04-06T00:53:58.201Z,101334.69
2023-04-06T00:57:01.059Z,101327.41
2023-04-06T01:00:06.342Z,101336.13
2023-04-06T01:03:09.598Z,101324.72
2023-04-06T01:06:16.304Z,101325.44
2023-04-06T01:09:20.797Z,101320.16
2023-04-06T01:12:23.515Z,101327.66
2023-04-06T01:15:26.365Z,101329.28
2023-04-06T01:18:29.506Z,101324.00
2023-04-06T01:21:55.109Z,101323.00
2023-04-06T01:24:57.838Z,101302.19
2023-04-06T01:28:06.730Z,101323.25
2023-04-06T01:31:30.823Z,101326.28
2023-04-06T01:34:33.752Z,101322.97
2023-04-06T01:37:39.411Z,101325.41
2023-04-06T01:40:45.065Z,101320.63
2023-04-06T01:43:50.205Z,101276.03
2023-04-06T01:46:52.744Z,101313.97
2023-04-06T01:49:55.655Z,101322.69
2023-04-06T01:52:58.596Z,101316.91
2023-04-06T01:56:03.491Z,101323.69
2023-04-06T01:59:13.726Z,101324.00
2023-04-06T02:02:19.045Z,101327.66
2023-04-06T02:05:32.583Z,101317.78
2023-04-06T02:08:36.529Z,101335.88
2023-04-06T02:11:38.821Z,101329.75
2023-04-06T02:14:42.290Z,101317.84
2023-04-06T02:17:45.316Z,101326.19
2023-04-06T02:20:47.671Z,101328.63
2023-04-06T02:23:50.580Z,101325.38
2023-04-06T02:26:53.957Z,101320.06
2023-04-06T02:29:56.462Z,101324.75
2023-04-06T02:32:59.401Z,101316.81
2023-04-06T02:36:02.561Z,101311.53
2023-04-06T02:39:05.611Z,101316.81
2023-04-06T02:42:08.183Z,101315.19
2023-04-06T02:45:10.527Z,101313.03
2023-04-06T02:48:18.397Z,101322.94
2023-04-06T02:51:21.233Z,101311.34
2023-04-06T02:54:29.992Z,101316.16
2023-04-06T02:57:32.875Z,101317.13
2023-04-06T03:00:35.371Z,101323.72
2023-04-06T03:03:37.964Z,101316.34
2023-04-06T03:06:46.355Z,101329.47
2023-04-06T03:09:58.876Z,101328.25
2023-04-06T03:13:01.126Z,101321.31
2023-04-06T03:16:18.388Z,101335.63
2023-04-06T03:19:20.841Z,101332.78
2023-04-06T03:22:23.573Z,101328.97
2023-04-06T03:25:26.076Z,101335.00
2023-04-06T03:28:31.815Z,101337.88
2023-04-06T03:31:38.436Z,101340.75
2023-04-06T03:35:04.076Z,101335.75
2023-04-06T03:38:07.508Z,101336.69
2023-04-06T03:41:09.863Z,101331.69
2023-04-06T03:44:12.538Z,101335.75
2023-04-06T03:47:15.047Z,101339.91
2023-04-06T03:50:17.869Z,101341.59
2023-04-06T03:53:21.144Z,101341.59
2023-04-06T03:56:23.657Z,101337.75
2023-04-06T03:59:26.217Z,101343.81
2023-04-06T04:02:29.252Z,101348.66
2023-04-06T04:05:31.769Z,101344.38
2023-04-06T04:08:34.343Z,101349.75
2023-04-06T04:11:37.772Z,101348.28
2023-04-06T04:14:40.678Z,101349.34
2023-04-06T04:17:47.858Z,101358.22
2023-04-06T04:20:50.337Z,101351.84
2023-04-06T04:23:55.791Z,101348.13
2023-04-06T04:26:58.284Z,101346.81
2023-04-06T04:30:01.601Z,101314.44
2023-04-06T04:33:04.265Z,101340.94
2023-04-06T04:36:06.866Z,101354.09
2023-04-06T04:39:15.631Z,101351.09
2023-04-06T04:42:22.003Z,101346.94
2023-04-06T04:45:28.150Z,101346.75
2023-04-06T04:48:31.366Z,101349.00
2023-04-06T04:51:37.613Z,101353.09
2023-04-06T04:54:48.986Z,101356.78
2023-04-06T04:57:59.474Z,101353.97
2023-04-06T05:01:17.274Z,101358.94
2023-04-06T05:04:21.705Z,101359.00
2023-04-06T05:07:24.474Z,101362.78
2023-04-06T05:10:29.181Z,101360.44
2023-04-06T05:13:36.670Z,101365.25
2023-04-06T05:16:45.025Z,101363.78
2023-04-06T05:19:47.684Z,101366.09
2023-04-06T05:22:54.258Z,101349.91
2023-04-06T05:25:56.863Z,101367.28
2023-04-06T05:28:59.381Z,101361.44
2023-04-06T05:32:04.852Z,101367.41
2023-04-06T05:35:08.349Z,101362.13
2023-04-06T05:38:11.369Z,101360.59
2023-04-06T05:41:14.049Z,101362.22
2023-04-06T05:44:17.944Z,101360.81
2023-04-06T05:47:25.177Z,101362.31
2023-04-06T05:50:39.413Z,101360.75
2023-04-06T05:53:42.680Z,101356.03
2023-04-06T05:56:45.260Z,101355.94
2023-04-06T05:59:48.600Z,101369.91
2023-04-06T06:02:51.977Z,101362.94
2023-04-06T06:06:03.614Z,101359.63
2023-04-06T06:09:17.880Z,101357.34
2023-04-06T06:12:30.288Z,101354.66
2023-04-06T06:15:33.399Z,101353.84
2023-04-06T06:18:37.562Z,101347.63
2023-04-06T06:21:40.660Z,101348.44
2023-04-06T06:24:43.269Z,101343.72
2023-04-06T06:27:47.292Z,101345.13
2023-04-06T06:30:52.263Z,101348.22
2023-04-06T06:33:58.214Z,101351.72
2023-04-06T06:37:01.948Z,101348.38
2023-04-06T06:40:04.634Z,101353.00
2023-04-06T06:43:08.403Z,101349.38
2023-04-06T06:46:33.417Z,101352.00
2023-04-06T06:49:35.802Z,101354.50
2023-04-06T06:52:38.169Z,101350.25
2023-04-06T06:55:40.639Z,101353.13
2023-04-06T06:58:43.006Z,101353.09
2023-04-06T07:01:45.535Z,101340.03
2023-04-06T07:04:51.305Z,101351.69
2023-04-06T07:07:54.208Z,101354.09
2023-04-06T07:10:59.689Z,101340.00
2023-04-06T07:14:02.205Z,101330.31
2023-04-06T07:17:04.680Z,101330.56
2023-04-06T07:20:08.097Z,101322.81
2023-04-06T07:23:10.960Z,101311.72
2023-04-06T07:26:14.048Z,101319.28
2023-04-06T07:29:16.754Z,101317.44
2023-04-06T07:32:19.271Z,101327.72
2023-04-06T07:35:22.542Z,101330.25
2023-04-06T07:38:25.309Z,101324.09
2023-04-06T07:41:28.682Z,101317.97
2023-04-06T07:44:32.420Z,101329.66
2023-04-06T07:47:35.749Z,101326.94
2023-04-06T07:50:38.804Z,101326.19
2023-04-06T07:53:42.751Z,101333.47
2023-04-06T07:56:45.474Z,101322.16
2023-04-06T07:59:48.414Z,101320.50
2023-04-06T08:02:51.027Z,101321.78
2023-04-06T08:05:54.364Z,101323.00
2023-04-06T08:08:57.769Z,101329.47
2023-04-06T08:12:00.372Z,101334.56
2023-04-06T08:15:03.858Z,101329.47
2023-04-06T08:18:06.804Z,101318.88
2023-04-06T08:21:09.275Z,101313.63
2023-04-06T08:24:11.525Z,101317.22
2023-04-06T08:27:15.740Z,101315.88
2023-04-06T08:30:19.969Z,101328.31
2023-04-06T08:33:22.496Z,101326.03
2023-04-06T08:36:24.839Z,101331.22
2023-04-06T08:39:28.696Z,101317.09
2023-04-06T08:42:34.118Z,101312.75
2023-04-06T08:45:37.045Z,101319.97
2023-04-06T08:48:43.780Z,101318.16
2023-04-06T08:51:46.352Z,101318.88
2023-04-06T08:54:49.278Z,101312.34
2023-04-06T08:57:54.829Z,101318.94
2023-04-06T09:00:58.056Z,101310.50
2023-04-06T09:04:01.941Z,101313.75
2023-04-06T09:07:04.634Z,101310.22
2023-04-06T09:10:07.678Z,101312.09
2023-04-06T09:13:10.915Z,101312.59
2023-04-06T09:16:13.881Z,101313.06
2023-04-06T09:19:16.313Z,101306.50
2023-04-06T09:22:19.595Z,101301.84
2023-04-06T09:25:29.586Z,101305.34
2023-04-06T09:28:43.121Z,101308.94
2023-04-06T09:31:45.593Z,101306.69
2023-04-06T09:34:50.795Z,101305.00
2023-04-06T09:37:54.374Z,101308.03
2023-04-06T09:41:01.359Z,101310.47
2023-04-06T09:44:04.667Z,101320.56
2023-04-06T09:47:10.887Z,101305.94
2023-04-06T09:50:15.066Z,101303.41
2023-04-06T09:53:20.485Z,101313.41
2023-04-06T09:56:27.066Z,101306.00
2023-04-06T09:59:46.299Z,101314.38
2023-04-06T10:03:01.060Z,101307.44
2023-04-06T10:06:06.579Z,101302.00
2023-04-06T10:09:10.497Z,101307.97
2023-04-06T10:12:12.974Z,101288.47
2023-04-06T10:15:16.415Z,101285.53
2023-04-06T10:18:21.401Z,101287.13
2023-04-06T10:21:28.837Z,101292.03
2023-04-06T10:24:31.541Z,101289.78
2023-04-06T10:27:34.563Z,101285.13
2023-04-06T10:30:44.597Z,101276.69
2023-04-06T10:34:02.179Z,101280.94
2023-04-06T10:37:20.117Z,101274.78
2023-04-06T10:40:26.634Z,101282.13
2023-04-06T10:43:36.635Z,101263.34
2023-04-06T10:46:39.038Z,101262.72
2023-04-06T10:49:41.479Z,101266.31
2023-04-06T10:52:45.797Z,101266.84
2023-04-06T10:55:48.809Z,101265.63
2023-04-06T10:58:53.877Z,101262.34
2023-04-06T11:01:57.043Z,101251.50
2023-04-06T11:05:00.440Z,101252.91
2023-04-06T11:08:02.756Z,101256.59
2023-04-06T11:11:09.721Z,101264.25
2023-04-06T11:14:12.145Z,101255.78
2023-04-06T11:17:14.683Z,101246.44
2023-04-06T11:20:18.564Z,101251.44
2023-04-06T11:23:27.556Z,101240.13
2023-04-06T11:26:29.875Z,101234.16
2023-04-06T11:29:34.055Z,101232.66
2023-04-06T11:32:46.763Z,101243.59
2023-04-06T11:35:49.124Z,101242.53
2023-04-06T11:38:51.646Z,101233.25
2023-04-06T11:41:56.764Z,101233.81
2023-04-06T11:45:00.229Z,101236.00
2023-04-06T11:48:02.782Z,101228.66
2023-04-06T11:51:06.212Z,101211.66
2023-04-06T11:54:08.680Z,101218.97
2023-04-06T11:57:11.062Z,101212.22
2023-04-06T12:00:14.420Z,101211.84
2023-04-06T12:03:16.982Z,101203.78
2023-04-06T12:06:19.685Z,101196.75
2023-04-06T12:09:22.131Z,101198.38
2023-04-06T12:12:24.467Z,101213.47
2023-04-06T12:15:26.945Z,101189.81
2023-04-06T12:18:29.541Z,101212.72
2023-04-06T12:21:32.789Z,101209.47
2023-04-06T12:24:35.137Z,101206.19
2023-04-06T12:27:37.430Z,101197.44
2023-04-06T12:30:40.734Z,101185.66
2023-04-06T12:33:43.124Z,101190.63
2023-04-06T12:36:45.549Z,101185.28
2023-04-06T12:39:48.137Z,101176.63
2023-04-06T12:42:50.513Z,101180.13
2023-04-06T12:45:53.267Z,101178.38
2023-04-06T12:48:56.238Z,101171.91
2023-04-06T12:51:58.616Z,101174.72
2023-04-06T12:55:04.705Z,101172.06
2023-04-06T12:58:07.210Z,101165.91
2023-04-06T13:01:09.735Z,101173.50
2023-04-06T13:04:12.331Z,101159.09
2023-04-06T13:07:15.450Z,101160.31
2023-04-06T13:10:17.984Z,101154.81
2023-04-06T13:13:30.690Z,101160.88
2023-04-06T13:16:33.427Z,101156.13
2023-04-06T13:19:35.943Z,101160.81
2023-04-06T13:22:38.365Z,101157.09
2023-04-06T13:25:40.798Z,101149.78
2023-04-06T13:28:43.384Z,101150.06
2023-04-06T13:31:46.053Z,101148.75
2023-04-06T13:34:49.937Z,101151.84
2023-04-06T13:37:53.334Z,101162.06
2023-04-06T13:40:55.932Z,101159.56
2023-04-06T13:43:59.032Z,101160.59
2023-04-06T13:47:01.553Z,101151.50
2023-04-06T13:50:04.845Z,101150.25
2023-04-06T13:53:07.240Z,101152.63
2023-04-06T13:56:09.845Z,101141.47
2023-04-06T13:59:12.303Z,101152.53
2023-04-06T14:02:14.849Z,101146.41
2023-04-06T14:05:18.669Z,101148.16
2023-04-06T14:08:21.914Z,101143.34
2023-04-06T14:11:24.331Z,101137.94
2023-04-06T14:14:27.355Z,101134.41
2023-04-06T14:17:29.687Z,101132.44
2023-04-06T14:20:35.555Z,101125.78
2023-04-06T14:23:38.223Z,101125.41
2023-04-06T14:26:42.489Z,101126.22
2023-04-06T14:29:44.794Z,101118.34
2023-04-06T14:32:47.108Z,101120.19
2023-04-06T14:35:49.530Z,101106.28
2023-04-06T14:38:53.196Z,101106.56
2023-04-06T14:41:55.826Z,101108.78
2023-04-06T14:44:59.225Z,101091.81
2023-04-06T14:48:02.632Z,101101.34
2023-04-06T14:51:05.093Z,101108.00
2023-04-06T14:54:07.387Z,101107.03
2023-04-06T14:57:09.872Z,101116.34
2023-04-06T15:00:13.042Z,101112.06
2023-04-06T15:03:16.610Z,101111.81
2023-04-06T15:06:21.638Z,101113.03
2023-04-06T15:09:24.724Z,101113.84
2023-04-06T15:12:27.085Z,101118.63
2023-04-06T15:15:29.828Z,101114.47
2023-04-06T15:18:32.498Z,101111.84
2023-04-06T15:21:34.866Z,101110.41
2023-04-06T15:24:37.275Z,101102.41
2023-04-06T15:27:39.806Z,101115.88
2023-04-06T15:30:42.268Z,101108.47
2023-04-06T15:33:45.050Z,101102.25
2023-04-06T15:36:47.737Z,101117.44
2023-04-06T15:39:50.142Z,101113.13
2023-04-06T15:42:52.650Z,101111.03
2023-04-06T15:45:55.124Z,101117.94
2023-04-06T15:48:57.510Z,101109.66
2023-04-06T15:51:59.993Z,101099.91
2023-04-06T15:55:04.126Z,101108.94
2023-04-06T15:58:07.735Z,101109.72
2023-04-06T16:01:17.785Z,101103.50
2023-04-06T16:04:20.388Z,101112.88
2023-04-06T16:07:23.447Z,101098.91
2023-04-06T16:10:25.897Z,101092.31
2023-04-06T16:13:28.437Z,101099.94
2023-04-06T16:16:31.007Z,101084.47
2023-04-06T16:19:33.485Z,101097.09
2023-04-06T16:22:36.744Z,101089.63
2023-04-06T16:25:39.536Z,101079.09
2023-04-06T16:28:43.042Z,101094.56
2023-04-06T16:31:48.128Z,101096.28
2023-04-06T16:34:51.037Z,101091.56
2023-04-06T16:37:53.398Z,101083.63
2023-04-06T16:41:04.556Z,101086.56
2023-04-06T16:44:07.141Z,101084.03
2023-04-06T16:47:09.554Z,101082.22
2023-04-06T16:50:12.115Z,101075.16
2023-04-06T16:53:14.595Z,101074.34
2023-04-06T16:56:16.959Z,101085.78
2023-04-06T16:59:19.345Z,101071.63
2023-04-06T17:02:21.801Z,101075.56
2023-04-06T17:05:26.852Z,101069.81
2023-04-06T17:08:29.272Z,101058.19
2023-04-06T17:11:45.597Z,101071.28
2023-04-06T17:14:48.853Z,101075.25
2023-04-06T17:17:52.330Z,101082.16
2023-04-06T17:20:54.794Z,101083.38
2023-04-06T17:23:57.231Z,101079.69
2023-04-06T17:26:59.676Z,101069.69
2023-04-06T17:30:06.487Z,101058.94
2023-04-06T17:33:09.998Z,101070.56
2023-04-06T17:36:12.771Z,101066.19
2023-04-06T17:39:15.328Z,101071.38
2023-04-06T17:42:18.401Z,101074.47
2023-04-06T17:45:21.175Z,101069.69
2023-04-06T17:48:23.711Z,101075.53
2023-04-06T17:51:26.592Z,101050.25
2023-04-06T17:54:28.911Z,101083.41
2023-04-06T17:57:31.589Z,101070.56
2023-04-06T18:00:34.045Z,101073.44
2023-04-06T18:03:36.434Z,101092.09
2023-04-06T18:06:38.873Z,101073.44
2023-04-06T18:09:41.478Z,101080.91
2023-04-06T18:12:43.875Z,101076.31
2023-04-06T18:15:46.234Z,101090.84
2023-04-06T18:18:50.051Z,101091.25
2023-04-06T18:21:52.403Z,101082.97
2023-04-06T18:24:54.805Z,101080.91
2023-04-06T18:27:57.132Z,101083.59
2023-04-06T18:31:00.241Z,101085.44
2023-04-06T18:34:03.781Z,101075.06
2023-04-06T18:37:06.445Z,101075.94
2023-04-06T18:40:09.323Z,101090.63
2023-04-06T18:43:11.826Z,101080.09
2023-04-06T18:46:16.165Z,101072.81
2023-04-06T18:49:18.594Z,101082.16
2023-04-06T18:52:21.202Z,101079.22
2023-04-06T18:55:23.611Z,101082.56
2023-04-06T18:58:26.321Z,101069.31
2023-04-06T19:01:30.555Z,101082.16
2023-04-06T19:04:33.311Z,101077.78
2023-04-06T19:07:36.144Z,101077.19
2023-04-06T19:10:39.196Z,101082.56
2023-04-06T19:13:42.381Z,101085.47
2023-04-06T19:16:52.349Z,101053.34
2023-04-06T19:19:57.727Z,101084.66
2023-04-06T19:23:00.759Z,101077.41
2023-04-06T19:26:03.457Z,101086.72
2023-04-06T19:29:05.863Z,101083.00
2023-04-06T19:32:10.894Z,101080.09
2023-04-06T19:35:13.348Z,101073.88
2023-04-06T19:38:16.098Z,101074.91
2023-04-06T19:41:18.593Z,101061.84
2023-04-06T19:44:22.479Z,101073.06
2023-04-06T19:47:24.960Z,101081.75
2023-04-06T19:50:27.240Z,101081.31
2023-04-06T19:53:29.569Z,101069.09
2023-04-06T19:56:32.206Z,101078.03
2023-04-06T19:59:34.805Z,101081.75
2023-04-06T20:02:37.549Z,101078.22
2023-04-06T20:05:40.268Z,101076.38
2023-04-06T20:08:42.732Z,101078.22
2023-04-06T20:11:45.176Z,101057.72
2023-04-06T20:14:47.477Z,101068.28
2023-04-06T20:17:49.816Z,101053.97
2023-04-06T20:20:52.349Z,101067.22
2023-04-06T20:23:54.978Z,101059.78
2023-04-06T20:26:58.345Z,101067.44
2023-04-06T20:30:00.875Z,101067.88
2023-04-06T20:33:03.363Z,101062.06
2023-04-06T20:36:06.011Z,101067.03
2023-04-06T20:39:08.393Z,101067.84
2023-04-06T20:42:10.732Z,101061.44
2023-04-06T20:45:13.222Z,101056.03
2023-04-06T20:48:16.632Z,101043.59
2023-04-06T20:51:23.854Z,101041.97
2023-04-06T20:54:26.522Z,101047.75
2023-04-06T20:57:28.896Z,101047.38
2023-04-06T21:00:31.348Z,101038.25
2023-04-06T21:03:34.085Z,101051.28
2023-04-06T21:06:36.766Z,101051.88
2023-04-06T21:09:40.205Z,101040.28
2023-04-06T21:12:42.692Z,101035.53
2023-04-06T21:15:45.137Z,101022.91
2023-04-06T21:18:47.483Z,101030.16
2023-04-06T21:21:49.975Z,101022.66
2023-04-06T21:24:52.814Z,101020.84
2023-04-06T21:27:55.281Z,101021.44
2023-04-06T21:30:57.791Z,101016.47
2023-04-06T21:34:00.363Z,101014.19
2023-04-06T21:37:02.857Z,101014.00
2023-04-06T21:40:05.872Z,101011.91
2023-04-06T21:43:08.306Z,101003.84
2023-04-06T21:46:10.739Z,100992.25
2023-04-06T21:49:13.114Z,100989.34
2023-04-06T21:52:15.638Z,101001.56
2023-04-06T21:55:18.038Z,100998.88
2023-04-06T21:58:20.450Z,100997.66
2023-04-06T22:01:22.780Z,100998.88
2023-04-06T22:04:25.641Z,100996.38
2023-04-06T22:07:28.143Z,100989.13
2023-04-06T22:10:31.031Z,100984.34
2023-04-06T22:13:33.578Z,100983.94
2023-04-06T22:16:36.404Z,100978.34
2023-04-06T22:19:38.912Z,100977.53
2023-04-06T22:22:42.031Z,100989.13
2023-04-06T22:25:44.454Z,100977.94
2023-04-06T22:28:46.778Z,100975.66
2023-04-06T22:31:49.216Z,100962.59
2023-04-06T22:34:51.619Z,100966.13
2023-04-06T22:37:53.946Z,100963.41
2023-04-06T22:40:57.300Z,100961.16
2023-04-06T22:43:59.882Z,100943.34
2023-04-06T22:47:02.302Z,100955.09
2023-04-06T22:50:05.202Z,100950.81
2023-04-06T22:53:07.612Z,100945.81
2023-04-06T22:56:10.175Z,100955.75
2023-04-06T22:59:12.768Z,100941.00
2023-04-06T23:02:16.803Z,100937.31
2023-04-06T23:05:19.035Z,100942.47
2023-04-06T23:08:21.495Z,100939.38
2023-04-06T23:11:23.728Z,100928.19
2023-04-06T23:14:26.125Z,100932.75
2023-04-06T23:17:28.580Z,100929.22
2023-04-06T23:20:31.049Z,100927.78
2023-04-06T23:23:33.471Z,100927.78
2023-04-06T23:26:35.810Z,100918.03
2023-04-06T23:29:38.298Z,100892.16
2023-04-06T23:32:40.909Z,100914.75
2023-04-06T23:35:43.358Z,100921.75
2023-04-06T23:38:46.029Z,100907.25
2023-04-06T23:41:48.427Z,100911.34
2023-04-06T23:44:50.822Z,100914.69
2023-04-06T23:47:53.256Z,100905.56
2023-04-06T23:50:55.924Z,100897.66
2023-04-06T23:53:58.735Z,100900.81
2023-04-06T23:57:01.677Z,100893.91
